Time;durP1;ratioP1;P1;durP2;ratioP2;P2;SDS_P1;SDS_P2;PMS_P1;PMS_P2;Temp;Humidity;BMP_temperature;BMP_pressure;BME280_temperature;BME280_humidity;BME280_pressure;Samples;Min_cycle;Max_cycle;Signal;HPM_P1;HPM_P2
2021/11/09 00:01:44;;;;;;;16.35;6.80;;;;;;;8.68;77.45;96767.59;5096547;28;20373;-64
2021/11/09 00:04:10;;;;;;;13.25;7.40;;;;;;;8.71;76.93;96779.69;5096556;28;20039;-67
2021/11/09 00:06:46;;;;;;;11.48;6.75;;;;;;;8.69;76.57;96786.69;5096403;28;20024;-67
2021/11/09 00:09:16;;;;;;;14.93;7.15;;;;;;;8.68;76.83;96790.19;5096416;28;20028;-63
2021/11/09 00:11:42;;;;;;;16.80;6.80;;;;;;;8.64;76.07;96784.19;5096398;28;20170;-66
2021/11/09 00:14:08;;;;;;;19.80;7.13;;;;;;;8.53;76.63;96787.06;5096364;28;20078;-67
2021/11/09 00:16:34;;;;;;;14.45;6.72;;;;;;;8.47;77.13;96788.09;5096135;28;20375;-64
2021/11/09 00:19:01;;;;;;;21.27;9.00;;;;;;;8.36;78.86;96782.28;5096176;28;20072;-66
2021/11/09 00:21:27;;;;;;;13.85;8.25;;;;;;;8.32;79.95;96784.13;5096241;28;20034;-63
2021/11/09 00:23:54;;;;;;;14.27;8.35;;;;;;;8.30;79.34;96795.44;5096195;28;20020;-62
2021/11/09 00:26:20;;;;;;;16.05;8.68;;;;;;;8.26;79.23;96802.50;5096218;28;20054;-64
2021/11/09 00:28:46;;;;;;;12.93;7.82;;;;;;;8.25;78.97;96805.16;5096160;28;20016;-62
2021/11/09 00:31:12;;;;;;;12.10;7.53;;;;;;;8.21;78.84;96804.34;5096038;28;20427;-65
2021/11/09 00:33:39;;;;;;;12.63;9.30;;;;;;;8.16;80.15;96799.25;5095957;28;20054;-66
2021/11/09 00:36:06;;;;;;;15.43;8.05;;;;;;;8.15;79.61;96804.50;5095894;28;20019;-62
2021/11/09 00:38:32;;;;;;;17.20;8.75;;;;;;;8.06;79.69;96796.03;5095893;28;20097;-66
2021/11/09 00:40:58;;;;;;;18.25;8.27;;;;;;;8.08;79.44;96795.97;5095999;28;20012;-67
2021/11/09 00:43:23;;;;;;;12.40;8.10;;;;;;;8.08;79.45;96801.19;5095728;28;20047;-65
2021/11/09 00:45:49;;;;;;;17.52;8.27;;;;;;;8.08;79.27;96790.78;5095691;28;20405;-66
2021/11/09 00:48:15;;;;;;;13.60;8.23;;;;;;;8.06;79.64;96787.34;5095609;28;20370;-65
2021/11/09 00:50:43;;;;;;;15.68;8.48;;;;;;;8.04;79.53;96791.75;5095739;28;20032;-64
2021/11/09 00:53:12;;;;;;;15.57;8.02;;;;;;;8.09;79.10;96795.09;5095574;28;20024;-65
2021/11/09 00:55:37;;;;;;;17.25;8.82;;;;;;;8.06;79.86;96787.34;5095544;28;20087;-66
2021/11/09 00:58:03;;;;;;;13.20;9.32;;;;;;;8.06;80.17;96797.75;5095519;28;20059;-61
2021/11/09 01:00:32;;;;;;;15.23;9.10;;;;;;;8.07;80.15;96796.88;5095212;28;20032;-67
2021/11/09 01:02:59;;;;;;;17.25;10.18;;;;;;;8.11;80.45;96792.44;5095526;28;20050;-67
2021/11/09 01:05:26;;;;;;;21.45;10.57;;;;;;;8.07;80.60;96796.88;5095389;28;20458;-66
2021/11/09 01:07:58;;;;;;;21.08;10.88;;;;;;;8.05;81.26;96803.88;5095250;28;20058;-64
2021/11/09 01:10:28;;;;;;;19.15;9.98;;;;;;;8.16;81.21;96812.28;5095269;28;20103;-65
2021/11/09 01:12:53;;;;;;;20.08;10.15;;;;;;;8.22;79.99;96808.69;5095316;28;20041;-64
2021/11/09 01:15:20;;;;;;;17.45;9.18;;;;;;;8.18;79.56;96801.81;5095177;28;20032;-66
2021/11/09 01:17:46;;;;;;;16.15;9.40;;;;;;;8.22;79.13;96806.94;5094887;28;20048;-64
2021/11/09 01:20:15;;;;;;;19.88;9.88;;;;;;;8.19;78.90;96799.19;5095017;28;20481;-67
2021/11/09 01:22:42;;;;;;;17.42;8.90;;;;;;;8.18;79.12;96810.50;5094968;28;20052;-61
2021/11/09 01:25:09;;;;;;;23.10;10.45;;;;;;;8.18;79.28;96804.44;5095087;28;20094;-64
2021/11/09 01:27:35;;;;;;;18.63;9.88;;;;;;;8.22;79.74;96806.94;5094951;28;20035;-66
2021/11/09 01:30:02;;;;;;;15.85;9.35;;;;;;;8.27;79.48;96812.03;5094994;28;20046;-66
2021/11/09 01:32:28;;;;;;;16.77;11.35;;;;;;;8.22;79.45;96811.31;5094764;28;20024;-63
2021/11/09 01:34:54;;;;;;;23.40;11.43;;;;;;;8.16;79.90;96811.44;5094831;28;20377;-62
2021/11/09 01:37:20;;;;;;;21.10;13.38;;;;;;;8.21;80.84;96801.75;5094753;28;20545;-64
2021/11/09 01:39:46;;;;;;;28.25;14.10;;;;;;;8.27;81.91;96805.94;5094721;28;20099;-63
2021/11/09 01:42:11;;;;;;;20.83;12.32;;;;;;;8.32;81.86;96802.38;5094615;28;20120;-66
2021/11/09 01:44:37;;;;;;;17.35;11.27;;;;;;;8.34;81.62;96805.75;5094570;28;20052;-61
2021/11/09 01:47:03;;;;;;;17.90;11.20;;;;;;;8.42;80.94;96794.28;5094552;28;20032;-64
2021/11/09 01:49:28;;;;;;;20.58;10.63;;;;;;;8.46;80.67;96798.56;5094481;28;20131;-65
2021/11/09 01:51:54;;;;;;;18.48;11.00;;;;;;;8.52;80.39;96800.13;5094556;28;20035;-64
2021/11/09 01:54:22;;;;;;;23.33;12.70;;;;;;;8.55;80.57;96802.72;5093171;28;20444;-64
2021/11/09 01:56:47;;;;;;;23.02;11.73;;;;;;;8.58;80.66;96794.81;5094307;28;20024;-64
2021/11/09 01:59:14;;;;;;;20.23;11.23;;;;;;;8.62;80.05;96793.81;5094384;28;20099;-66
2021/11/09 02:01:39;;;;;;;23.95;15.27;;;;;;;8.70;81.06;96804.91;5094235;28;20020;-66
2021/11/09 02:04:08;;;;;;;27.17;14.50;;;;;;;8.74;81.77;96791.78;5094330;28;20016;-65
2021/11/09 02:06:35;;;;;;;22.33;13.48;;;;;;;8.69;81.66;96790.16;5094183;28;20056;-65
2021/11/09 02:09:06;;;;;;;27.17;14.27;;;;;;;8.69;80.97;96792.75;5094179;28;20020;-62
2021/11/09 02:11:32;;;;;;;20.27;13.23;;;;;;;8.70;81.18;96789.25;5093446;28;20120;-66
2021/11/09 02:13:57;;;;;;;22.95;13.38;;;;;;;8.70;81.19;96784.03;5094028;28;20599;-66
2021/11/09 02:16:23;;;;;;;25.23;14.60;;;;;;;8.69;80.98;96790.16;5093915;28;20042;-66
2021/11/09 02:18:49;;;;;;;19.30;11.35;;;;;;;8.69;80.70;96797.13;5094180;28;20046;-65
2021/11/09 02:21:14;;;;;;;32.17;17.25;;;;;;;8.63;80.95;96792.91;5093832;28;20378;-66
2021/11/09 02:23:43;;;;;;;28.27;13.77;;;;;;;8.57;81.07;96793.94;5093907;28;20032;-65
2021/11/09 02:26:10;;;;;;;35.05;17.40;;;;;;;8.67;82.98;96791.94;5093728;28;20035;-62
2021/11/09 02:28:37;;;;;;;29.27;15.80;;;;;;;8.71;82.41;96793.59;5093874;28;20027;-65
2021/11/09 02:31:03;;;;;;;26.23;15.68;;;;;;;8.66;81.44;96799.81;5093715;28;20547;-64
2021/11/09 02:33:29;;;;;;;32.38;16.20;;;;;;;8.61;81.77;96806.91;5093718;28;20442;-66
2021/11/09 02:35:54;;;;;;;30.10;17.25;;;;;;;8.55;81.86;96813.13;5093740;28;20054;-62
2021/11/09 02:38:20;;;;;;;35.53;18.23;;;;;;;8.58;82.79;96829.53;5093642;28;20021;-63
2021/11/09 02:40:46;;;;;;;31.27;18.10;;;;;;;8.64;82.57;96827.69;5093607;28;20012;-65
2021/11/09 02:43:15;;;;;;;22.60;14.18;;;;;;;8.59;80.96;96820.84;5093467;28;20030;-66
2021/11/09 02:48:43;;;;;;;25.20;16.05;;;;;;;8.45;81.45;96826.38;5093833;28;20097;-65
2021/11/09 02:51:22;;;;;;;28.38;17.52;;;;;;;8.42;81.67;96825.56;5093560;28;20028;-66
2021/11/09 02:53:54;;;;;;;24.45;15.70;;;;;;;8.41;81.45;96823.88;5093439;28;20043;-66
2021/11/09 03:06:47;;;;;;;24.90;15.75;;;;;;;8.34;80.86;96855.28;5093277;28;20031;-62
2021/11/09 03:09:38;;;;;;;28.25;14.73;;;;;;;8.29;80.33;96856.31;5093339;28;20020;-63
2021/11/09 03:12:05;;;;;;;25.00;16.02;;;;;;;8.24;80.64;96861.63;5093253;28;20128;-63
2021/11/09 03:14:31;;;;;;;35.58;18.58;;;;;;;8.11;81.91;96868.88;5093225;28;20032;-65
2021/11/09 03:17:01;;;;;;;34.75;17.58;;;;;;;8.16;82.49;96871.38;5092906;28;20499;-65
2021/11/09 03:44:18;;;;;;;28.63;15.88;;;;;;;8.50;83.16;96891.44;5097321;28;20047;-62
2021/11/09 03:46:51;;;;;;;32.40;18.08;;;;;;;8.62;84.13;96899.88;5096817;28;20491;-65
2021/11/09 03:49:20;;;;;;;33.60;18.33;;;;;;;8.64;84.38;96916.34;5096967;28;20054;-64
2021/11/09 03:51:46;;;;;;;29.30;17.80;;;;;;;8.72;84.39;96923.09;5095711;28;20439;-64
2021/11/09 03:54:15;;;;;;;29.63;18.75;;;;;;;8.76;84.23;96913.44;5096783;28;20020;-65
2021/11/09 03:56:52;;;;;;;31.98;19.42;;;;;;;8.78;83.64;96911.66;5096721;28;20024;-64
2021/11/09 03:59:27;;;;;;;48.17;29.50;;;;;;;8.83;83.83;96914.16;5096759;28;20102;-64
2021/11/09 04:04:32;;;;;;;38.20;21.90;;;;;;;8.97;83.27;96937.28;5096543;28;20382;-63
2021/11/09 04:07:45;;;;;;;36.63;21.77;;;;;;;9.01;83.15;96945.88;5096477;28;20092;-65
2021/11/09 04:10:22;;;;;;;43.53;24.38;;;;;;;9.15;84.11;96948.16;5093424;28;20043;-63
2021/11/09 04:16:14;;;;;;;36.80;22.17;;;;;;;9.18;84.65;96966.34;5096378;28;20084;-67
2021/11/09 04:20:36;;;;;;;34.58;21.73;;;;;;;9.33;84.42;96975.53;5096241;28;20110;-65
2021/11/09 04:26:06;;;;;;;32.10;19.75;;;;;;;9.46;83.92;96981.28;5096589;28;20046;-62
2021/11/09 04:28:45;;;;;;;33.05;19.83;;;;;;;9.50;83.63;96975.09;5096147;28;20031;-63
2021/11/09 05:11:17;;;;;;;44.35;26.70;;;;;;;10.17;85.65;96988.06;5095361;28;20028;-64
2021/11/09 05:13:43;;;;;;;45.70;28.13;;;;;;;10.22;85.38;96999.25;5095235;28;20146;-64
2021/11/09 05:16:08;;;;;;;55.78;28.67;;;;;;;10.18;85.64;97005.47;5094993;28;20099;-66
2021/11/09 05:18:34;;;;;;;53.15;28.25;;;;;;;10.18;85.74;97006.31;5095178;28;20106;-63
2021/11/09 05:21:00;;;;;;;45.67;26.98;;;;;;;10.26;85.81;97000.84;5095128;28;20022;-63
2021/11/09 05:23:26;;;;;;;45.70;28.10;;;;;;;10.30;85.67;96988.56;5095096;28;20474;-65
2021/11/09 05:25:52;;;;;;;43.70;26.23;;;;;;;10.32;85.71;96982.38;5095021;28;20031;-65
2021/11/09 05:28:18;;;;;;;49.95;28.27;;;;;;;10.38;85.27;96988.34;5094906;28;20024;-61
2021/11/09 05:30:50;;;;;;;49.17;28.65;;;;;;;10.39;85.73;96996.13;5094963;28;20030;-65
2021/11/09 05:33:17;;;;;;;50.22;28.75;;;;;;;10.35;85.57;97000.59;5094932;28;20055;-62
2021/11/09 05:35:44;;;;;;;49.25;27.27;;;;;;;10.46;85.67;97005.53;5094814;28;20063;-62
2021/11/09 05:38:12;;;;;;;50.13;27.60;;;;;;;10.57;85.37;97009.59;5094790;28;20020;-64
2021/11/09 05:40:40;;;;;;;49.47;28.13;;;;;;;10.63;85.40;97014.63;5094689;28;20474;-63
2021/11/09 05:43:07;;;;;;;46.10;28.13;;;;;;;10.70;84.99;97024.00;5094633;28;20108;-65
2021/11/09 05:45:33;;;;;;;45.38;27.25;;;;;;;10.80;84.65;97027.19;5094450;28;20166;-66
2021/11/09 05:47:59;;;;;;;45.90;26.92;;;;;;;10.88;84.47;97032.19;5093670;28;20513;-66
2021/11/09 05:50:26;;;;;;;42.83;27.45;;;;;;;10.93;84.24;97043.34;5094565;28;20377;-64
2021/11/09 05:52:52;;;;;;;47.92;27.38;;;;;;;10.96;84.18;97045.88;5094537;28;20086;-66
2021/11/09 05:55:18;;;;;;;50.00;29.25;;;;;;;11.02;83.92;97060.56;5094539;28;20036;-66
2021/11/09 05:57:45;;;;;;;49.78;29.30;;;;;;;11.02;83.87;97068.41;5094360;28;20021;-67
2021/11/09 06:00:12;;;;;;;54.65;27.38;;;;;;;11.08;83.83;97078.66;5094336;28;20078;-62
2021/11/09 06:02:39;;;;;;;53.50;32.17;;;;;;;11.13;83.61;97086.38;5094418;28;20024;-67
2021/11/09 06:05:05;;;;;;;85.47;50.22;;;;;;;11.20;83.19;97087.88;5094298;28;20020;-67
2021/11/09 06:07:30;;;;;;;68.10;42.92;;;;;;;11.27;83.30;97087.69;5094223;28;20446;-64
2021/11/09 06:09:56;;;;;;;67.40;41.65;;;;;;;11.32;82.89;97084.03;5094204;28;20490;-64
2021/11/09 06:12:22;;;;;;;62.00;38.10;;;;;;;11.36;82.90;97084.78;5093998;28;20436;-67
2021/11/09 06:14:47;;;;;;;52.25;33.85;;;;;;;11.43;82.83;97080.19;5094079;28;20032;-65
2021/11/09 06:17:13;;;;;;;48.10;29.73;;;;;;;11.45;82.76;97087.13;5093851;28;20477;-63
2021/11/09 06:19:38;;;;;;;46.17;28.48;;;;;;;11.52;82.55;97079.91;5094146;28;20033;-62
2021/11/09 06:22:04;;;;;;;42.47;28.42;;;;;;;11.55;82.42;97078.94;5093907;28;20080;-61
2021/11/09 06:24:31;;;;;;;43.40;28.52;;;;;;;11.60;82.24;97077.91;5093915;28;20496;-66
2021/11/09 06:26:57;;;;;;;42.35;26.95;;;;;;;11.65;81.97;97076.88;5093717;28;20051;-63
2021/11/09 06:29:23;;;;;;;46.97;28.08;;;;;;;11.67;81.79;97078.53;5093843;28;20110;-64
2021/11/09 06:31:49;;;;;;;48.35;29.23;;;;;;;11.72;81.51;97070.50;5093731;28;20460;-61
2021/11/09 06:34:16;;;;;;;47.17;29.23;;;;;;;11.74;81.36;97066.94;5093707;28;20062;-65
2021/11/09 06:36:42;;;;;;;45.45;28.42;;;;;;;11.74;81.39;97063.47;5093654;28;20088;-67
2021/11/09 06:39:08;;;;;;;49.28;30.00;;;;;;;11.74;81.31;97071.34;5093593;28;20485;-63
2021/11/09 06:41:34;;;;;;;47.08;30.48;;;;;;;11.78;81.27;97066.81;5093653;28;20354;-66
2021/11/09 06:44:00;;;;;;;51.25;29.80;;;;;;;11.74;81.56;97064.31;5093683;28;20028;-64
2021/11/09 06:46:26;;;;;;;53.33;30.67;;;;;;;11.79;81.36;97060.66;5092208;28;20027;-62
2021/11/09 06:48:52;;;;;;;51.05;30.70;;;;;;;11.82;81.02;97060.56;5093504;28;20024;-63
2021/11/09 06:51:18;;;;;;;46.75;28.90;;;;;;;11.82;80.90;97074.53;5093533;28;20016;-64
2021/11/09 06:53:44;;;;;;;48.88;30.10;;;;;;;11.77;80.86;97079.06;5093482;28;20024;-67
2021/11/09 06:56:10;;;;;;;47.53;29.13;;;;;;;11.72;81.05;97079.25;5093431;28;20024;-64
2021/11/09 06:58:36;;;;;;;42.20;27.85;;;;;;;11.77;80.75;97086.09;5092975;28;20020;-64
2021/11/09 07:01:04;;;;;;;44.05;29.17;;;;;;;11.79;80.55;97079.88;5093335;28;20024;-63
2021/11/09 07:03:30;;;;;;;54.05;31.15;;;;;;;11.80;80.63;97078.97;5093250;28;20012;-67
2021/11/09 07:05:56;;;;;;;58.53;30.70;;;;;;;11.74;81.05;97097.53;5093283;28;20027;-66
2021/11/09 07:08:22;;;;;;;55.75;36.55;;;;;;;11.76;81.16;97098.31;5092981;28;20488;-61
2021/11/09 07:10:48;;;;;;;54.47;33.25;;;;;;;11.78;81.17;97093.91;5093275;28;20049;-64
2021/11/09 07:13:14;;;;;;;55.28;33.20;;;;;;;11.78;81.85;97099.16;5093136;28;20028;-65
2021/11/09 07:15:39;;;;;;;53.42;31.98;;;;;;;11.78;81.48;97086.03;5093121;28;20024;-61
2021/11/09 07:18:07;;;;;;;57.47;32.60;;;;;;;11.85;81.83;97084.03;5093078;28;20129;-67
2021/11/09 07:20:36;;;;;;;51.85;32.67;;;;;;;11.90;81.82;97076.91;5093131;28;20044;-62
2021/11/09 07:23:03;;;;;;;56.15;32.45;;;;;;;12.01;81.37;97081.75;5093167;28;20023;-66
2021/11/09 07:25:30;;;;;;;56.42;31.83;;;;;;;12.05;81.01;97091.22;5093047;28;20020;-63
2021/11/09 07:27:55;;;;;;;49.63;30.98;;;;;;;12.14;80.85;97100.56;5092974;28;20036;-63
2021/11/09 07:30:27;;;;;;;46.47;30.17;;;;;;;12.23;80.01;97096.75;5092991;28;20030;-66
2021/11/09 07:32:52;;;;;;;49.58;29.58;;;;;;;12.29;80.00;97100.94;5093115;28;20024;-63
2021/11/09 07:35:18;;;;;;;47.80;29.55;;;;;;;12.33;79.80;97107.75;5092944;28;20028;-68
2021/11/09 07:37:45;;;;;;;47.53;29.25;;;;;;;12.38;79.61;97111.94;5093025;28;20025;-65
2021/11/09 07:40:12;;;;;;;44.47;29.30;;;;;;;12.46;79.21;97105.56;5091706;28;20050;-65
2021/11/09 07:42:47;;;;;;;49.83;31.85;;;;;;;12.38;79.42;97095.34;5093004;28;20043;-66
2021/11/09 07:45:14;;;;;;;50.10;32.28;;;;;;;12.40;79.42;97108.41;5092871;28;20039;-63
2021/11/09 07:47:40;;;;;;;54.90;32.20;;;;;;;12.42;79.28;97117.94;5092925;28;20028;-64
2021/11/09 07:50:06;;;;;;;50.78;30.90;;;;;;;12.47;79.11;97108.16;5091728;28;20121;-65
2021/11/09 07:52:32;;;;;;;56.70;32.40;;;;;;;12.49;79.13;97100.19;5092765;28;20048;-67
2021/11/09 07:55:02;;;;;;;50.42;32.33;;;;;;;12.45;79.49;97111.72;5092738;28;20107;-65
2021/11/09 07:57:31;;;;;;;50.85;31.13;;;;;;;12.40;79.58;97111.03;5092796;28;20035;-63
2021/11/09 08:00:06;;;;;;;48.35;30.45;;;;;;;12.45;79.47;97123.06;5092761;28;20032;-64
2021/11/09 08:05:38;;;;;;;;;;;;;;;12.49;79.18;97111.53;5070977;28;20041;-65
2021/11/09 08:08:13;;;;;;;43.90;29.10;;;;;;;12.55;79.38;97122.75;5088600;28;19927;-67
2021/11/09 08:10:38;;;;;;;47.92;28.70;;;;;;;12.55;79.40;97110.47;5094829;28;20043;-66
2021/11/09 08:13:04;;;;;;;47.40;28.58;;;;;;;12.58;79.22;97110.34;5096414;28;20020;-63
2021/11/09 08:15:31;;;;;;;43.53;29.02;;;;;;;12.71;78.71;97104.66;5096363;28;20412;-64
2021/11/09 08:17:56;;;;;;;44.55;27.52;;;;;;;12.80;77.99;97108.69;5096119;28;20048;-62
2021/11/09 08:20:22;;;;;;;45.42;28.95;;;;;;;12.73;77.95;97108.94;5096362;28;20028;-65
2021/11/09 08:22:48;;;;;;;43.00;27.60;;;;;;;12.80;77.80;97120.06;5096294;28;20028;-61
2021/11/09 08:25:14;;;;;;;42.35;27.58;;;;;;;12.88;77.62;97123.25;5096158;28;20111;-63
2021/11/09 08:27:40;;;;;;;45.95;29.42;;;;;;;12.93;77.59;97127.44;5096205;28;20117;-66
2021/11/09 08:30:07;;;;;;;42.13;27.23;;;;;;;12.99;77.41;97127.22;5096108;28;20016;-66
2021/11/09 08:32:34;;;;;;;39.22;27.45;;;;;;;13.01;76.91;97128.88;5096178;28;20081;-65
2021/11/09 08:35:00;;;;;;;39.67;27.70;;;;;;;13.07;76.71;97126.94;5095992;28;20016;-67
2021/11/09 08:37:26;;;;;;;41.97;27.70;;;;;;;13.10;76.38;97125.03;5095898;28;20032;-67
2021/11/09 08:39:52;;;;;;;40.17;27.98;;;;;;;13.12;76.43;97130.22;5095909;28;20048;-64
2021/11/09 08:42:28;;;;;;;38.50;26.55;;;;;;;13.09;76.71;97135.59;5095947;28;20077;-63
2021/11/09 08:45:08;;;;;;;42.42;25.60;;;;;;;13.17;76.11;97141.41;5095973;28;20035;-62
2021/11/09 08:47:38;;;;;;;40.63;26.95;;;;;;;13.16;75.59;97125.72;5095826;28;20028;-61
2021/11/09 08:50:05;;;;;;;35.38;24.67;;;;;;;13.10;75.66;97116.31;5095737;28;20470;-65
2021/11/09 08:52:33;;;;;;;40.45;25.88;;;;;;;13.16;75.77;97123.97;5095655;28;20131;-67
2021/11/09 08:55:15;;;;;;;37.88;26.05;;;;;;;13.17;75.61;97130.91;5095553;28;20052;-63
2021/11/09 09:05:38;;;;;;;48.70;30.30;;;;;;;13.34;75.81;97137.28;5095424;28;20031;-65
2021/11/09 09:08:04;;;;;;;37.80;24.67;;;;;;;13.38;75.09;97141.50;5095351;28;20477;-68
2021/11/09 09:10:30;;;;;;;42.58;24.75;;;;;;;13.45;74.21;97150.84;5095271;28;20466;-68
2021/11/09 09:12:55;;;;;;;37.63;25.15;;;;;;;13.50;74.24;97146.28;5095310;28;20031;-68
2021/11/09 09:15:21;;;;;;;39.25;24.15;;;;;;;13.58;73.77;97158.25;5095281;28;20461;-65
2021/11/09 09:17:47;;;;;;;39.95;24.70;;;;;;;13.59;73.62;97166.09;5094974;28;20036;-64
2021/11/09 09:20:27;;;;;;;33.75;23.17;;;;;;;13.55;73.04;97174.16;5095041;28;20062;-64
2021/11/09 09:28:08;;;;;;;34.50;23.63;;;;;;;13.58;73.14;97182.75;5094876;28;20059;-62
2021/11/09 09:52:29;;;;;;;32.53;22.08;;;;;;;13.87;72.34;97167.59;5094877;28;20027;-65
2021/11/09 09:57:27;;;;;;;38.58;23.45;;;;;;;13.98;71.44;97139.97;5094355;28;20024;-63
2021/11/09 09:59:53;;;;;;;39.72;21.67;;;;;;;13.99;71.25;97134.66;5094356;28;20028;-67
2021/11/09 10:02:24;;;;;;;32.08;21.55;;;;;;;14.07;70.99;97122.94;5094281;28;20031;-67
2021/11/09 10:04:58;;;;;;;32.33;20.67;;;;;;;14.17;70.44;97128.69;5094414;28;20115;-64
2021/11/09 10:07:37;;;;;;;39.72;23.60;;;;;;;14.25;69.82;97123.94;5094206;28;20028;-62
2021/11/09 10:10:09;;;;;;;34.40;22.55;;;;;;;14.24;70.66;97115.19;5094302;28;20054;-63
2021/11/09 10:12:37;;;;;;;37.92;24.27;;;;;;;14.25;70.17;97122.16;5094293;28;20031;-65
2021/11/09 10:15:18;;;;;;;38.05;23.83;;;;;;;14.26;70.57;97129.13;5094058;28;20080;-64
2021/11/09 10:17:56;;;;;;;40.20;24.92;;;;;;;14.24;70.41;97130.13;5093926;28;20538;-62
2021/11/09 10:20:30;;;;;;;33.00;23.98;;;;;;;14.18;70.72;97123.31;5094125;28;20028;-63
2021/11/09 10:23:09;;;;;;;36.75;22.77;;;;;;;14.24;70.29;97130.13;5094037;28;20035;-67
2021/11/09 10:25:36;;;;;;;35.35;23.30;;;;;;;14.28;69.94;97140.47;5093924;28;20039;-65
2021/11/09 10:28:12;;;;;;;38.72;24.85;;;;;;;14.35;69.77;97145.44;5093720;28;20064;-66
2021/11/09 10:30:42;;;;;;;34.38;22.73;;;;;;;14.24;70.28;97151.19;5093765;28;20363;-63
2021/11/09 10:33:14;;;;;;;34.55;24.10;;;;;;;14.26;70.07;97157.22;5093254;28;20056;-65
2021/11/09 10:35:41;;;;;;;35.95;23.17;;;;;;;14.21;70.39;97149.50;5093802;28;20503;-65
2021/11/09 10:38:07;;;;;;;42.30;24.33;;;;;;;14.20;70.46;97154.84;5093696;28;20020;-66
2021/11/09 10:40:36;;;;;;;32.47;21.83;;;;;;;14.22;70.35;97156.50;5093618;28;20073;-64
2021/11/09 10:43:05;;;;;;;37.17;21.02;;;;;;;14.23;70.33;97145.06;5093652;28;20027;-65
2021/11/09 10:45:35;;;;;;;35.67;25.25;;;;;;;14.25;70.38;97161.63;5093571;28;20024;-65
2021/11/09 10:48:05;;;;;;;55.13;37.10;;;;;;;14.26;70.19;97162.47;5093511;28;20028;-65
2021/11/09 10:50:37;;;;;;;41.58;27.15;;;;;;;14.23;70.50;97163.47;5093468;28;20049;-65
2021/11/09 10:56:04;;;;;;;32.78;22.35;;;;;;;14.24;70.00;97165.16;5093501;28;20024;-64
2021/11/09 10:58:54;;;;;;;37.90;24.00;;;;;;;14.28;69.86;97163.28;5093349;28;20036;-65
2021/11/09 11:06:26;;;;;;;35.45;20.65;;;;;;;14.32;68.45;97179.75;5093363;28;20118;-68
2021/11/09 11:09:01;;;;;;;33.75;21.45;;;;;;;14.31;68.54;97175.44;5093184;28;20481;-65
2021/11/09 11:11:33;;;;;;;37.08;21.88;;;;;;;14.27;68.63;97148.41;5093478;28;20385;-63
2021/11/09 11:14:12;;;;;;;35.40;22.48;;;;;;;14.26;69.08;97155.44;5093345;28;20024;-62
2021/11/09 11:16:50;;;;;;;40.65;23.10;;;;;;;14.27;69.64;97165.03;5092912;28;20040;-65
2021/11/09 11:19:24;;;;;;;34.20;22.38;;;;;;;14.26;69.53;97155.44;5093261;28;20119;-65
2021/11/09 11:21:51;;;;;;;31.17;22.00;;;;;;;14.25;70.02;97166.91;5093127;28;20032;-65
2021/11/09 11:24:17;;;;;;;38.35;23.05;;;;;;;14.15;70.52;97169.06;5092087;28;20034;-64
2021/11/09 11:26:45;;;;;;;33.22;20.80;;;;;;;14.07;71.24;97167.66;5093063;28;20032;-60
2021/11/09 11:29:18;;;;;;;33.00;21.02;;;;;;;13.93;72.03;97177.00;5093016;28;20024;-67
2021/11/09 11:31:45;;;;;;;39.45;22.23;;;;;;;13.84;72.48;97187.88;5093103;28;20024;-61
2021/11/09 11:34:13;;;;;;;39.33;22.45;;;;;;;13.74;73.18;97172.50;5092918;28;20042;-67
2021/11/09 11:36:39;;;;;;;33.00;21.70;;;;;;;13.73;73.58;97180.44;5092986;28;20132;-65
2021/11/09 11:39:08;;;;;;;33.20;22.05;;;;;;;13.71;73.66;97167.38;5093046;28;20481;-63
2021/11/09 11:41:37;;;;;;;37.65;23.75;;;;;;;13.62;73.69;97170.34;5092913;28;20032;-64
2021/11/09 11:44:08;;;;;;;36.22;23.10;;;;;;;13.55;74.62;97179.41;5094138;28;20020;-62
2021/11/09 11:46:34;;;;;;;36.38;23.73;;;;;;;13.58;75.47;97179.28;5096916;28;20031;-65
2021/11/09 11:49:09;;;;;;;35.58;22.52;;;;;;;13.56;74.92;97205.63;5096943;28;20481;-65
2021/11/09 11:51:59;;;;;;;34.75;22.60;;;;;;;13.52;75.18;97212.78;5096928;28;20028;-67
2021/11/09 11:54:42;;;;;;;40.03;23.90;;;;;;;13.60;75.69;97191.44;5096771;28;20027;-63
2021/11/09 11:57:08;;;;;;;34.03;22.70;;;;;;;13.62;75.23;97199.28;5096832;28;20033;-65
2021/11/09 11:59:33;;;;;;;36.72;22.70;;;;;;;13.59;74.93;97205.53;5096833;28;20031;-65
2021/11/09 12:02:08;;;;;;;34.45;22.13;;;;;;;13.66;74.89;97210.53;5096755;28;20020;-62
2021/11/09 12:04:53;;;;;;;41.10;23.73;;;;;;;13.70;74.85;97217.38;5096751;28;20028;-65
2021/11/09 12:07:41;;;;;;;33.03;22.50;;;;;;;13.72;75.03;97221.66;5096521;28;20036;-63
2021/11/09 12:10:09;;;;;;;40.22;22.02;;;;;;;13.70;74.85;97218.22;5096564;28;20027;-65
2021/11/09 12:12:35;;;;;;;32.17;23.27;;;;;;;13.66;74.39;97221.88;5096516;28;20027;-65
2021/11/09 12:15:05;;;;;;;33.67;21.60;;;;;;;13.66;74.33;97221.06;5096501;28;20473;-68
2021/11/09 12:17:40;;;;;;;44.90;24.30;;;;;;;13.60;74.43;97217.75;5096147;28;20127;-64
2021/11/09 12:20:14;;;;;;;38.75;22.85;;;;;;;13.62;74.64;97218.53;5096423;28;20020;-66
2021/11/09 12:22:50;;;;;;;36.63;23.75;;;;;;;13.62;74.46;97221.19;5096215;28;20036;-64
2021/11/09 12:25:32;;;;;;;39.45;23.67;;;;;;;13.60;74.81;97220.38;5096498;28;20059;-65
2021/11/09 12:28:12;;;;;;;42.05;24.95;;;;;;;13.59;74.53;97220.44;5096188;28;20115;-64
2021/11/09 12:30:48;;;;;;;44.00;25.48;;;;;;;13.52;74.31;97220.66;5096138;28;20169;-64
2021/11/09 12:33:14;;;;;;;34.38;21.50;;;;;;;13.52;74.45;97230.34;5096105;28;20126;-65
2021/11/09 12:36:06;;;;;;;31.10;17.98;;;;;;;13.45;73.12;97227.03;5096027;28;20407;-64
2021/11/09 12:38:34;;;;;;;40.72;23.25;;;;;;;13.42;73.88;97224.53;5096022;28;20047;-66
2021/11/09 12:41:15;;;;;;;37.08;22.20;;;;;;;13.35;74.19;97241.44;5095941;28;20373;-65
2021/11/09 12:44:01;;;;;;;39.17;22.50;;;;;;;13.34;74.39;97235.34;5095876;28;20028;-64
2021/11/09 12:46:35;;;;;;;42.38;23.63;;;;;;;13.29;74.18;97242.56;5095845;28;20032;-62
2021/11/09 12:49:04;;;;;;;38.47;21.70;;;;;;;13.32;74.16;97250.31;5095776;28;20032;-67
2021/11/09 12:51:33;;;;;;;36.95;21.65;;;;;;;13.36;74.54;97251.03;5095864;28;20066;-64
2021/11/09 12:54:04;;;;;;;31.88;20.88;;;;;;;13.35;74.72;97251.97;5095733;28;20044;-65
2021/11/09 12:56:35;;;;;;;24.58;14.80;;;;;;;13.34;72.93;97258.97;5095126;28;20449;-62
2021/11/09 12:59:35;;;;;;;19.50;12.15;;;;;;;13.23;71.20;97272.53;5095557;28;20047;-67
2021/11/09 13:10:02;;;;;;;14.30;10.07;;;;;;;13.00;71.57;97274.22;5095412;28;20021;-65
2021/11/09 13:12:32;;;;;;;12.30;8.43;;;;;;;12.89;70.67;97271.97;5095357;28;20469;-65
2021/11/09 13:15:04;;;;;;;14.48;7.57;;;;;;;12.94;69.27;97287.56;5095341;28;20028;-63
2021/11/09 13:17:37;;;;;;;7.15;4.47;;;;;;;12.86;68.21;97294.88;5094943;28;20508;-64
2021/11/09 13:20:34;;;;;;;5.65;4.25;;;;;;;12.81;67.93;97308.16;5095389;28;20077;-64
2021/11/09 13:23:12;;;;;;;5.90;4.45;;;;;;;12.81;67.40;97312.56;5095131;28;20028;-64
2021/11/09 13:25:41;;;;;;;6.70;4.07;;;;;;;12.75;66.98;97311.88;5095183;28;20028;-66
2021/11/09 13:28:20;;;;;;;6.85;3.40;;;;;;;12.63;65.71;97313.16;5094952;28;20167;-62
2021/11/09 13:31:09;;;;;;;4.22;2.95;;;;;;;12.42;66.61;97327.84;5095063;28;20030;-65
2021/11/09 13:33:38;;;;;;;5.80;2.80;;;;;;;12.28;66.57;97332.69;5094872;28;20115;-63
2021/11/09 13:36:04;;;;;;;2.90;2.53;;;;;;;12.24;67.00;97329.28;5094854;28;20045;-65
2021/11/09 13:38:39;;;;;;;4.47;2.83;;;;;;;12.18;66.97;97321.63;5094883;28;20024;-62
2021/11/09 13:41:17;;;;;;;3.92;2.30;;;;;;;11.99;66.14;97322.19;5094843;28;20082;-62
2021/11/09 13:44:10;;;;;;;2.90;1.98;;;;;;;11.80;67.22;97322.72;5094822;28;20078;-65
2021/11/09 13:46:39;;;;;;;3.05;1.80;;;;;;;11.55;66.63;97320.00;5088955;28;20493;-61
2021/11/09 13:49:10;;;;;;;2.60;2.35;;;;;;;11.57;66.68;97318.19;5094590;28;20032;-66
2021/11/09 13:51:48;;;;;;;4.05;2.33;;;;;;;11.46;66.20;97329.84;5094740;28;20412;-62
2021/11/09 13:54:23;;;;;;;2.50;2.30;;;;;;;11.42;65.60;97314.25;5094685;28;20475;-65
2021/11/09 13:56:52;;;;;;;5.38;2.60;;;;;;;11.42;66.92;97335.22;5094568;28;20024;-64
2021/11/09 13:59:27;;;;;;;1.90;1.80;;;;;;;11.35;64.75;97343.25;5094441;28;20032;-64